Time;durP1;ratioP1;P1;durP2;ratioP2;P2;SDS_P1;SDS_P2;PMS_P1;PMS_P2;Temp;Humidity;BMP_temperature;BMP_pressure;BME280_temperature;BME280_humidity;BME280_pressure;Samples;Min_cycle;Max_cycle;Signal;HPM_P1;HPM_P2
2022/05/06 00:02:00;;;;;;;9.30;5.20;;;;;;;2.83;60.48;99711.83;104937;1271;61713;-26
2022/05/06 00:04:29;;;;;;;13.30;5.70;;;;;;;2.78;61.05;99712.88;104968;1271;75554;-26
2022/05/06 00:06:57;;;;;;;9.50;5.30;;;;;;;2.72;61.34;99708.50;104872;1271;75210;-26
2022/05/06 00:09:26;;;;;;;11.60;6.40;;;;;;;2.65;62.25;99705.14;104952;1271;74421;-26
2022/05/06 00:11:54;;;;;;;13.40;7.10;;;;;;;2.57;63.32;99708.36;104820;1271;61135;-26
2022/05/06 00:14:23;;;;;;;11.60;6.60;;;;;;;2.46;63.62;99702.80;104780;1272;62051;-27
2022/05/06 00:16:52;;;;;;;12.30;6.70;;;;;;;2.34;64.27;99700.66;104948;1271;75498;-26
2022/05/06 00:19:20;;;;;;;12.40;6.30;;;;;;;2.23;65.98;99701.04;104968;1271;75958;-26
2022/05/06 00:21:48;;;;;;;5.40;3.20;;;;;;;2.12;67.18;99700.41;104833;1271;74370;-27
2022/05/06 00:24:17;;;;;;;10.80;4.50;;;;;;;2.61;66.08;99704.59;104911;1271;61022;-26
2022/05/06 00:26:45;;;;;;;9.90;4.80;;;;;;;3.36;64.00;99707.50;104635;1274;62006;-26
2022/05/06 00:29:15;;;;;;;11.30;6.40;;;;;;;3.60;62.85;99705.84;104883;1271;73598;-27
2022/05/06 00:31:44;;;;;;;9.30;4.60;;;;;;;3.55;62.83;99708.11;104873;1271;76293;-27
2022/05/06 00:34:20;;;;;;;8.10;4.20;;;;;;;3.39;62.79;99707.39;105050;1271;74440;-26
2022/05/06 00:36:49;;;;;;;8.80;5.10;;;;;;;3.24;62.78;99709.02;105053;1271;61045;-27
2022/05/06 00:39:17;;;;;;;6.10;3.80;;;;;;;3.12;62.57;99705.57;104869;1271;61021;-26
2022/05/06 00:41:46;;;;;;;7.00;3.70;;;;;;;3.02;61.87;99706.14;104859;1271;75665;-26
2022/05/06 00:44:15;;;;;;;7.80;3.60;;;;;;;2.93;61.75;99709.89;104884;1271;76211;-26
2022/05/06 00:46:43;;;;;;;11.60;4.00;;;;;;;2.87;61.79;99703.98;104790;1271;74358;-26
2022/05/06 00:49:14;;;;;;;6.80;3.30;;;;;;;2.79;61.26;99705.14;104673;1274;61606;-26
2022/05/06 00:51:44;;;;;;;4.10;2.70;;;;;;;2.75;60.59;99705.30;104796;1272;61741;-26
2022/05/06 00:54:15;;;;;;;8.50;3.00;;;;;;;2.72;60.49;99701.81;104670;1274;75630;-26
2022/05/06 00:56:44;;;;;;;7.90;3.30;;;;;;;2.68;61.20;99701.09;104771;1271;75067;-27
2022/05/06 00:59:13;;;;;;;11.10;3.70;;;;;;;2.64;61.66;99703.99;104880;1271;74284;-26
2022/05/06 01:01:41;;;;;;;8.30;4.00;;;;;;;2.56;62.35;99705.31;104793;1271;61340;-27
2022/05/06 01:04:10;;;;;;;10.00;4.30;;;;;;;2.47;62.88;99706.01;104882;1271;61274;-26
2022/05/06 01:06:41;;;;;;;9.70;4.20;;;;;;;2.36;62.94;99701.10;104744;1272;75570;-27
2022/05/06 01:09:15;;;;;;;13.70;4.80;;;;;;;2.26;63.56;99702.99;104790;1271;75795;-26
2022/05/06 01:11:44;;;;;;;12.40;7.10;;;;;;;2.15;64.47;99701.52;104698;1271;74406;-26
2022/05/06 01:14:30;;;;;;;20.00;9.40;;;;;;;2.02;65.14;99699.06;104886;1268;61286;-27
2022/05/06 01:16:59;;;;;;;15.40;7.30;;;;;;;1.91;64.92;99704.92;104755;1271;61186;-26
2022/05/06 01:19:28;;;;;;;23.50;9.90;;;;;;;1.88;65.06;99707.77;104824;1271;75519;-26
2022/05/06 01:21:56;;;;;;;29.20;11.40;;;;;;;1.87;65.27;99706.79;104826;1272;75983;-27
2022/05/06 01:24:25;;;;;;;16.80;6.60;;;;;;;1.83;66.02;99707.23;104799;1271;74405;-28
2022/05/06 01:26:57;;;;;;;14.10;4.90;;;;;;;2.32;65.99;99709.44;104974;1271;61841;-28
2022/05/06 01:29:25;;;;;;;13.20;5.10;;;;;;;3.14;64.26;99713.02;104722;1271;61816;-28
2022/05/06 01:31:54;;;;;;;11.40;4.20;;;;;;;3.43;62.63;99715.66;104710;1274;75607;-27
2022/05/06 01:34:25;;;;;;;6.00;3.40;;;;;;;3.43;61.97;99717.52;104909;1271;75995;-27
2022/05/06 01:36:55;;;;;;;7.80;4.00;;;;;;;3.31;61.29;99713.38;104752;1271;74547;-27
2022/05/06 01:39:28;;;;;;;11.40;3.50;;;;;;;3.18;61.04;99714.08;104754;1271;61556;-28
2022/05/06 01:41:58;;;;;;;6.90;3.50;;;;;;;3.05;60.93;99716.13;104991;1271;62091;-32
2022/05/06 01:44:41;;;;;;;8.10;3.60;;;;;;;2.92;61.48;99714.42;105090;1271;75537;-30
2022/05/06 01:47:26;;;;;;;9.30;4.00;;;;;;;2.75;61.83;99709.91;104878;1271;74968;-28
2022/05/06 01:49:59;;;;;;;10.40;5.40;;;;;;;2.60;62.62;99711.36;105075;1269;74360;-26
2022/05/06 01:52:31;;;;;;;7.40;3.90;;;;;;;2.46;63.05;99713.08;104706;1271;61058;-28
2022/05/06 01:55:00;;;;;;;5.40;3.10;;;;;;;2.34;63.09;99714.01;104675;1274;61113;-27
2022/05/06 01:57:34;;;;;;;9.10;3.00;;;;;;;2.25;62.78;99713.48;104647;1272;75525;-28
2022/05/06 02:00:05;;;;;;;8.70;4.00;;;;;;;2.17;63.13;99715.51;104766;1271;75824;-28
2022/05/06 02:02:43;;;;;;;11.60;3.70;;;;;;;2.05;63.83;99715.23;104827;1271;74115;-27
2022/05/06 02:05:19;;;;;;;7.80;3.80;;;;;;;1.94;64.34;99715.63;104944;1274;61147;-28
2022/05/06 02:07:54;;;;;;;5.90;3.60;;;;;;;1.82;64.45;99711.70;104908;1271;61001;-28
2022/05/06 02:10:24;;;;;;;7.00;4.40;;;;;;;1.72;64.96;99713.48;104808;1271;74310;-26
2022/05/06 02:12:59;;;;;;;7.60;4.90;;;;;;;1.57;66.62;99713.09;104788;1271;75991;-27
2022/05/06 02:15:38;;;;;;;5.90;2.80;;;;;;;1.46;67.28;99710.73;104865;1271;74467;-28
2022/05/06 02:18:33;;;;;;;7.80;4.30;;;;;;;2.14;68.44;99715.58;104593;1271;61274;-26
2022/05/06 02:21:20;;;;;;;11.30;5.40;;;;;;;2.77;67.86;99713.45;104897;1271;61072;-27
2022/05/06 02:24:12;;;;;;;8.40;4.60;;;;;;;2.78;67.41;99712.20;104913;1271;73332;-28
2022/05/06 02:26:59;;;;;;;10.10;4.30;;;;;;;2.58;65.90;99709.71;105100;1271;75784;-27
2022/05/06 02:29:29;;;;;;;7.90;4.70;;;;;;;2.34;66.07;99709.56;105025;1271;74212;-27
2022/05/06 02:34:47;;;;;;;8.40;5.00;;;;;;;1.82;66.60;99715.84;104806;1271;61807;-27
2022/05/06 02:37:17;;;;;;;10.00;5.50;;;;;;;1.63;66.50;99713.91;104917;1271;75639;-27
2022/05/06 02:39:48;;;;;;;15.90;7.80;;;;;;;1.46;67.46;99717.22;104951;1271;75829;-27
2022/05/06 02:42:24;;;;;;;14.80;8.10;;;;;;;1.31;67.70;99723.52;104919;1271;74739;-27
2022/05/06 02:44:53;;;;;;;15.20;7.70;;;;;;;1.20;69.51;99723.36;104884;1271;61096;-27
2022/05/06 02:47:22;;;;;;;10.90;3.90;;;;;;;1.13;69.51;99724.44;104899;1271;61932;-27
2022/05/06 02:49:52;;;;;;;11.60;6.30;;;;;;;1.67;69.92;99726.45;104945;1271;75307;-27
2022/05/06 02:52:22;;;;;;;16.80;7.40;;;;;;;2.46;68.96;99730.88;104944;1271;75976;-27
2022/05/06 02:54:51;;;;;;;15.00;8.00;;;;;;;2.75;67.67;99730.30;104677;1271;74150;-27
2022/05/06 02:57:21;;;;;;;11.60;5.40;;;;;;;2.76;66.64;99729.26;104915;1271;61286;-27
2022/05/06 02:59:49;;;;;;;10.40;5.70;;;;;;;2.63;66.43;99731.11;105025;1271;61107;-27
2022/05/06 03:02:20;;;;;;;16.30;7.70;;;;;;;2.52;66.47;99731.16;104945;1271;73959;-27
2022/05/06 03:04:49;;;;;;;13.10;6.20;;;;;;;2.52;67.43;99734.92;104998;1272;76071;-27
2022/05/06 03:07:19;;;;;;;11.50;6.60;;;;;;;2.57;66.95;99735.63;104898;1272;74706;-27
2022/05/06 03:09:52;;;;;;;13.90;6.80;;;;;;;2.64;67.37;99732.77;104907;1271;61130;-27
2022/05/06 03:12:26;;;;;;;12.40;6.60;;;;;;;2.71;67.35;99731.65;104792;1271;61282;-27
2022/05/06 03:15:04;;;;;;;12.40;6.10;;;;;;;2.81;67.39;99730.78;104797;1274;75590;-27
2022/05/06 03:17:43;;;;;;;12.50;5.90;;;;;;;2.93;67.13;99733.09;104869;1271;76111;-27
2022/05/06 03:20:13;;;;;;;8.20;3.80;;;;;;;3.05;67.28;99732.94;104748;1274;73269;-27
2022/05/06 03:22:46;;;;;;;9.70;4.70;;;;;;;3.82;66.73;99736.52;104942;1271;61016;-26
2022/05/06 03:25:14;;;;;;;13.20;5.40;;;;;;;4.85;64.28;99741.77;104839;1271;61854;-26
2022/05/06 03:27:59;;;;;;;11.40;5.90;;;;;;;5.35;62.39;99739.61;104898;1271;75422;-26
2022/05/06 03:30:30;;;;;;;14.00;6.50;;;;;;;5.57;60.94;99741.10;104631;1274;75997;-26
2022/05/06 03:33:31;;;;;;;13.50;5.60;;;;;;;5.70;60.74;99745.30;104599;1271;74192;-26
2022/05/06 03:36:04;;;;;;;9.90;5.30;;;;;;;5.78;60.62;99742.46;104955;1271;61036;-26
2022/05/06 03:38:38;;;;;;;13.00;7.10;;;;;;;5.91;59.61;99743.91;104820;1271;61040;-26
2022/05/06 03:41:07;;;;;;;9.50;5.10;;;;;;;6.03;58.27;99745.92;104931;1271;75381;-26
2022/05/06 03:43:36;;;;;;;9.00;4.50;;;;;;;6.02;57.51;99743.04;104922;1271;77453;-26
2022/05/06 03:46:14;;;;;;;9.20;4.80;;;;;;;6.07;56.86;99745.04;104916;1271;74395;-26
2022/05/06 03:48:43;;;;;;;13.70;6.30;;;;;;;6.15;56.58;99745.52;104976;1270;61038;-26
2022/05/06 03:51:21;;;;;;;11.00;4.70;;;;;;;6.25;56.34;99751.34;104930;1271;61041;-26
2022/05/06 03:53:56;;;;;;;10.10;5.40;;;;;;;6.33;56.71;99753.16;104953;1271;75686;-26
2022/05/06 03:56:27;;;;;;;11.60;5.90;;;;;;;6.55;56.63;99752.00;104767;1271;75971;-26
2022/05/06 03:58:59;;;;;;;11.00;6.30;;;;;;;6.81;56.51;99754.92;104832;1271;74483;-26
2022/05/06 04:01:29;;;;;;;9.50;5.10;;;;;;;7.10;57.01;99757.34;104798;1271;61531;-26
2022/05/06 04:03:58;;;;;;;8.60;3.90;;;;;;;7.36;57.08;99759.48;104914;1271;60995;-26
2022/05/06 04:06:30;;;;;;;7.90;4.60;;;;;;;7.57;56.36;99757.45;104804;1271;74582;-26
2022/05/06 04:08:59;;;;;;;8.60;3.80;;;;;;;7.70;56.14;99761.39;105037;1272;76437;-26
2022/05/06 04:11:34;;;;;;;6.80;4.10;;;;;;;7.70;55.82;99761.90;105267;1271;74559;-26
2022/05/06 04:14:05;;;;;;;8.20;4.00;;;;;;;7.70;56.11;99765.68;105060;1271;61145;-26
2022/05/06 04:16:37;;;;;;;7.90;3.40;;;;;;;7.85;56.13;99763.61;105076;1271;61105;-26
2022/05/06 04:19:12;;;;;;;6.40;2.90;;;;;;;8.06;55.26;99762.37;104870;1271;75593;-26
2022/05/06 04:24:30;;;;;;;8.50;3.00;;;;;;;8.14;53.74;99766.73;104876;1271;74299;-26
2022/05/06 04:26:59;;;;;;;5.60;3.10;;;;;;;8.25;53.59;99764.73;104807;1271;61118;-26
2022/05/06 04:29:28;;;;;;;5.20;2.90;;;;;;;8.37;53.02;99766.59;105220;1271;62147;-26
2022/05/06 04:31:56;;;;;;;9.30;2.80;;;;;;;8.47;52.70;99766.33;105191;1270;75597;-25
2022/05/06 04:34:26;;;;;;;6.60;2.90;;;;;;;8.65;52.55;99765.44;105289;1271;75000;-26
2022/05/06 04:36:55;;;;;;;6.30;2.80;;;;;;;8.82;52.03;99768.02;105164;1271;74382;-26
2022/05/06 04:39:24;;;;;;;7.60;2.80;;;;;;;8.97;51.84;99769.38;105187;1271;62060;-26
2022/05/06 04:41:53;;;;;;;7.70;3.20;;;;;;;9.20;52.08;99773.45;105037;1270;62379;-26
2022/05/06 04:44:33;;;;;;;6.40;3.30;;;;;;;9.47;51.13;99778.49;104857;1271;75523;-26
2022/05/06 04:47:02;;;;;;;5.40;3.30;;;;;;;9.68;50.19;99776.92;104984;1270;76341;-26
2022/05/06 04:49:31;;;;;;;6.60;3.20;;;;;;;9.89;49.81;99783.20;104958;1271;73606;-26
2022/05/06 04:52:00;;;;;;;6.90;3.20;;;;;;;10.11;49.52;99780.48;105005;1271;61269;-26
2022/05/06 04:54:30;;;;;;;8.80;3.00;;;;;;;10.33;48.69;99780.58;105073;1271;62111;-26
2022/05/06 04:56:59;;;;;;;4.80;2.60;;;;;;;10.49;47.15;99782.45;105111;1270;74628;-26
2022/05/06 04:59:35;;;;;;;5.30;2.90;;;;;;;10.55;45.59;99783.63;104794;1271;76056;-26
2022/05/06 05:02:04;;;;;;;4.20;2.30;;;;;;;10.62;45.94;99783.46;104934;1271;74156;-26
2022/05/06 05:04:34;;;;;;;4.80;1.90;;;;;;;10.78;45.16;99787.26;104763;1271;61912;-25
2022/05/06 05:07:10;;;;;;;3.00;1.90;;;;;;;10.94;44.34;99788.23;104955;1270;61305;-25
2022/05/06 05:09:45;;;;;;;4.50;2.10;;;;;;;11.09;43.85;99788.31;104839;1271;75532;-25
2022/05/06 05:12:14;;;;;;;5.00;1.80;;;;;;;11.16;43.56;99784.88;105291;1269;76012;-26
2022/05/06 05:14:46;;;;;;;4.80;2.00;;;;;;;11.28;42.64;99788.02;104900;1271;74128;-26
2022/05/06 05:17:17;;;;;;;6.70;2.20;;;;;;;11.28;41.58;99792.87;104889;1271;61892;-26
2022/05/06 05:19:51;;;;;;;3.50;1.90;;;;;;;11.40;41.27;99791.88;104982;1271;61143;-26
2022/05/06 05:22:20;;;;;;;2.20;1.50;;;;;;;11.50;40.78;99791.67;105001;1271;75531;-25
2022/05/06 05:24:50;;;;;;;4.70;1.90;;;;;;;11.56;40.51;99791.08;104832;1273;75835;-25
2022/05/06 05:27:19;;;;;;;4.00;1.60;;;;;;;11.69;41.25;99795.47;104805;1271;74272;-27
2022/05/06 05:29:47;;;;;;;4.70;1.80;;;;;;;11.87;40.77;99795.23;104835;1274;61077;-27
2022/05/06 05:32:18;;;;;;;3.90;1.60;;;;;;;12.01;39.82;99795.39;104936;1271;62232;-27
2022/05/06 05:34:47;;;;;;;9.80;2.00;;;;;;;12.01;39.44;99796.95;104919;1271;76204;-27
2022/05/06 05:37:17;;;;;;;3.10;1.70;;;;;;;12.19;39.81;99799.79;104833;1274;76056;-28
2022/05/06 05:39:46;;;;;;;3.20;1.60;;;;;;;12.37;40.24;99797.40;105163;1271;74201;-25
2022/05/06 05:42:22;;;;;;;1.40;1.00;;;;;;;12.54;38.91;99798.91;105003;1271;61133;-27
2022/05/06 05:50:38;;;;;;;2.80;1.50;;;;;;;13.10;37.42;99800.29;104873;1271;75986;-26
2022/05/06 05:53:07;;;;;;;4.70;1.50;;;;;;;13.24;37.25;99805.60;104950;1271;74166;-26
2022/05/06 05:55:38;;;;;;;6.50;1.60;;;;;;;13.42;35.99;99802.41;104859;1271;62389;-26
2022/05/06 05:58:10;;;;;;;4.10;1.20;;;;;;;13.55;35.85;99804.18;104943;1271;61138;-26
2022/05/06 06:00:38;;;;;;;4.20;1.50;;;;;;;13.74;34.94;99807.82;104895;1271;75616;-26
2022/05/06 06:03:07;;;;;;;5.20;1.30;;;;;;;13.91;35.22;99804.35;104892;1274;75782;-26
2022/05/06 06:05:40;;;;;;;4.50;1.00;;;;;;;14.05;34.84;99802.02;105034;1271;73399;-26
2022/05/06 06:08:10;;;;;;;3.20;1.30;;;;;;;14.14;34.56;99803.34;104951;1271;61029;-26
2022/05/06 06:10:40;;;;;;;4.00;1.10;;;;;;;14.26;33.30;99801.13;104922;1271;61799;-26
2022/05/06 06:13:16;;;;;;;2.50;1.20;;;;;;;14.29;33.37;99802.98;104909;1270;75901;-26
2022/05/06 06:15:47;;;;;;;4.40;1.70;;;;;;;14.30;33.35;99802.69;104752;1271;75303;-26
2022/05/06 06:18:16;;;;;;;3.20;1.60;;;;;;;14.40;32.65;99802.66;105056;1271;74359;-27
2022/05/06 06:20:45;;;;;;;4.30;1.20;;;;;;;14.38;32.64;99797.28;104616;1274;62182;-26
2022/05/06 06:23:13;;;;;;;5.30;1.70;;;;;;;14.51;32.26;99795.33;104806;1271;61089;-25
2022/05/06 06:25:42;;;;;;;4.70;1.20;;;;;;;14.53;31.97;99794.84;104779;1271;74779;-25
2022/05/06 06:28:11;;;;;;;6.30;0.90;;;;;;;14.50;31.74;99791.63;104967;1271;75980;-26
2022/05/06 06:30:40;;;;;;;3.90;1.40;;;;;;;14.42;31.67;99796.25;105014;1271;74386;-25
2022/05/06 06:33:09;;;;;;;1.30;0.90;;;;;;;14.69;32.63;99801.29;104763;1271;62183;-25
2022/05/06 06:35:38;;;;;;;3.80;1.40;;;;;;;15.00;31.70;99798.63;104794;1271;61216;-25
2022/05/06 06:38:06;;;;;;;2.20;1.20;;;;;;;14.97;30.81;99800.52;104879;1272;75559;-27
2022/05/06 06:40:41;;;;;;;3.70;1.20;;;;;;;14.96;30.28;99801.59;104852;1272;74457;-25
2022/05/06 06:43:09;;;;;;;5.70;1.30;;;;;;;15.15;31.17;99798.02;104952;1271;75622;-25
2022/05/06 06:45:50;;;;;;;8.90;1.30;;;;;;;15.36;30.31;99798.64;104884;1271;61147;-25
2022/05/06 06:48:57;;;;;;;7.90;1.70;;;;;;;15.22;30.05;99797.08;104258;1277;61129;-25
2022/05/06 06:51:52;;;;;;;9.50;1.60;;;;;;;15.32;29.42;99794.63;104337;1277;75427;-25
2022/05/06 06:54:21;;;;;;;4.50;1.40;;;;;;;15.40;30.06;99798.84;104563;1272;76039;-27
2022/05/06 06:56:49;;;;;;;5.00;1.70;;;;;;;15.55;30.12;99796.55;104960;1271;74362;-25
2022/05/06 06:59:18;;;;;;;2.60;0.80;;;;;;;15.55;29.13;99798.48;105032;1271;61936;-25
2022/05/06 07:01:46;;;;;;;3.70;1.10;;;;;;;15.71;29.00;99797.04;104942;1271;61648;-25
2022/05/06 07:04:15;;;;;;;2.10;1.20;;;;;;;15.89;29.17;99801.78;104907;1271;75522;-25
2022/05/06 07:12:20;;;;;;;8.60;1.20;;;;;;;15.63;28.09;99788.37;104968;1271;61304;-25
2022/05/06 07:14:49;;;;;;;2.90;1.00;;;;;;;15.68;29.32;99789.48;105002;1271;61148;-25
2022/05/06 07:17:18;;;;;;;2.30;1.00;;;;;;;16.01;29.27;99788.39;104947;1271;75578;-28
2022/05/06 07:19:48;;;;;;;3.80;1.10;;;;;;;16.34;28.57;99787.45;104909;1271;74976;-25
2022/05/06 07:22:17;;;;;;;2.60;1.10;;;;;;;16.53;26.84;99787.09;105032;1271;74047;-26
2022/05/06 07:24:55;;;;;;;3.80;1.10;;;;;;;16.72;26.39;99788.98;104992;1271;62333;-25
2022/05/06 07:27:23;;;;;;;1.70;1.10;;;;;;;16.97;28.08;99785.23;104868;1271;61856;-25
2022/05/06 07:29:52;;;;;;;1.90;1.10;;;;;;;17.23;26.77;99782.44;105058;1270;75721;-25
2022/05/06 07:32:21;;;;;;;4.50;1.00;;;;;;;17.33;27.42;99782.25;104986;1271;75975;-25
2022/05/06 07:34:49;;;;;;;1.30;0.90;;;;;;;17.37;26.22;99778.21;104895;1271;73609;-25
2022/05/06 07:37:17;;;;;;;2.70;1.40;;;;;;;17.32;25.28;99778.86;104939;1271;61213;-25
2022/05/06 07:39:46;;;;;;;2.40;1.40;;;;;;;17.59;26.19;99782.52;104730;1274;61201;-25
2022/05/06 07:42:15;;;;;;;5.50;1.10;;;;;;;17.87;25.54;99781.38;104957;1271;75591;-25
2022/05/06 07:44:43;;;;;;;3.70;1.20;;;;;;;17.81;25.61;99786.88;105022;1269;75051;-25
2022/05/06 07:47:12;;;;;;;4.40;1.40;;;;;;;17.79;25.16;99783.55;104995;1270;74482;-28
2022/05/06 07:49:42;;;;;;;2.30;1.10;;;;;;;17.72;25.65;99785.88;104944;1271;61112;-27
2022/05/06 07:52:10;;;;;;;2.60;1.10;;;;;;;17.59;25.19;99785.76;104988;1270;60986;-27
2022/05/06 07:54:39;;;;;;;3.10;0.90;;;;;;;17.17;23.78;99786.77;104957;1271;75589;-26
2022/05/06 07:57:09;;;;;;;2.00;1.20;;;;;;;16.73;24.18;99785.20;104874;1271;75954;-25
2022/05/06 07:59:37;;;;;;;4.00;1.40;;;;;;;17.00;25.57;99786.15;105000;1271;74266;-25
2022/05/06 08:04:52;;;;;;;4.80;1.40;;;;;;;17.78;25.29;99787.55;105266;1270;61019;-25
2022/05/06 08:07:21;;;;;;;7.10;1.20;;;;;;;17.55;24.10;99784.36;105187;1271;75523;-25
2022/05/06 08:09:50;;;;;;;3.40;1.30;;;;;;;17.66;25.60;99783.41;105052;1271;75956;-25
2022/05/06 08:12:18;;;;;;;4.80;1.70;;;;;;;18.06;25.42;99782.98;104970;1271;74420;-25
2022/05/06 08:14:47;;;;;;;2.40;1.30;;;;;;;18.37;24.33;99783.75;105123;1271;61846;-27
2022/05/06 08:17:15;;;;;;;2.30;1.30;;;;;;;18.54;22.99;99781.65;104906;1271;61152;-26
2022/05/06 08:19:44;;;;;;;2.10;1.30;;;;;;;18.65;24.27;99779.64;104973;1271;75509;-27
2022/05/06 08:22:13;;;;;;;1.80;1.00;;;;;;;18.77;24.70;99780.87;104693;1274;76129;-27
2022/05/06 08:24:43;;;;;;;2.90;1.30;;;;;;;18.62;24.03;99780.86;104954;1271;73236;-27
2022/05/06 08:27:38;;;;;;;5.00;1.50;;;;;;;18.56;24.03;99779.02;105121;1271;61122;-27
2022/05/06 08:30:08;;;;;;;3.40;1.50;;;;;;;18.62;24.52;99780.45;105100;1271;62015;-27
2022/05/06 08:32:37;;;;;;;5.20;1.40;;;;;;;18.87;24.00;99778.40;104822;1271;74272;-27
2022/05/06 08:35:06;;;;;;;2.10;1.20;;;;;;;19.05;22.92;99767.61;105090;1271;76045;-26
2022/05/06 08:37:42;;;;;;;5.60;1.30;;;;;;;19.10;24.03;99770.40;104729;1271;73350;-27
2022/05/06 08:40:25;;;;;;;2.30;1.10;;;;;;;19.25;22.28;99770.80;104740;1271;61076;-27
2022/05/06 08:42:54;;;;;;;6.10;1.60;;;;;;;19.53;21.72;99771.31;104853;1271;62608;-27
2022/05/06 08:51:04;;;;;;;5.10;1.40;;;;;;;20.36;22.25;99776.65;105282;1270;74373;-27
2022/05/06 08:53:36;;;;;;;4.40;1.10;;;;;;;20.28;21.61;99764.33;104885;1271;61170;-27
2022/05/06 08:56:06;;;;;;;5.80;1.40;;;;;;;20.02;21.51;99773.27;104863;1271;61040;-25
2022/05/06 08:58:37;;;;;;;1.90;1.20;;;;;;;20.00;21.53;99766.39;105135;1271;75667;-27
2022/05/06 09:01:13;;;;;;;3.70;1.40;;;;;;;20.14;23.07;99771.85;104845;1274;76199;-26
2022/05/06 09:03:45;;;;;;;2.80;1.20;;;;;;;20.63;22.32;99768.90;104828;1271;74394;-27
2022/05/06 09:06:25;;;;;;;3.50;1.10;;;;;;;20.62;22.40;99767.84;105075;1271;61033;-27
2022/05/06 09:08:57;;;;;;;2.60;1.00;;;;;;;20.52;19.45;99763.19;105016;1274;62480;-27
2022/05/06 09:14:20;;;;;;;3.00;1.10;;;;;;;20.26;20.88;99760.83;104765;1271;75991;-27
2022/05/06 09:16:50;;;;;;;4.90;1.40;;;;;;;19.98;20.33;99756.61;105060;1271;74457;-27
2022/05/06 09:19:24;;;;;;;6.00;1.20;;;;;;;20.19;21.09;99755.89;105106;1271;61137;-27
2022/05/06 09:22:05;;;;;;;5.20;1.40;;;;;;;20.65;21.62;99753.64;105012;1271;61179;-27
2022/05/06 09:24:40;;;;;;;3.20;1.20;;;;;;;20.72;21.07;99745.48;104971;1271;75350;-28
2022/05/06 09:27:09;;;;;;;2.90;1.30;;;;;;;20.78;19.84;99752.16;104966;1271;75954;-25
2022/05/06 09:29:42;;;;;;;9.90;1.50;;;;;;;20.64;19.47;99746.66;105041;1271;73381;-27
2022/05/06 09:32:25;;;;;;;2.40;1.10;;;;;;;20.61;19.67;99749.36;104813;1271;62129;-25
2022/05/06 09:34:55;;;;;;;1.80;0.90;;;;;;;20.58;20.86;99755.69;105039;1271;61966;-26
2022/05/06 09:37:44;;;;;;;1.80;1.10;;;;;;;20.36;20.27;99748.71;105049;1271;75336;-26
2022/05/06 09:40:12;;;;;;;5.80;1.40;;;;;;;20.75;20.27;99746.35;104712;1271;74850;-27
2022/05/06 09:42:45;;;;;;;4.00;1.50;;;;;;;20.97;19.60;99738.26;105093;1271;74805;-27
2022/05/06 09:45:14;;;;;;;2.00;1.40;;;;;;;21.08;18.91;99743.73;104767;1271;61778;-28
2022/05/06 09:47:44;;;;;;;7.50;1.40;;;;;;;20.85;19.34;99746.86;104655;1271;61118;-26
2022/05/06 09:50:13;;;;;;;4.20;1.80;;;;;;;21.01;19.13;99739.89;104785;1274;75447;-26
2022/05/06 09:52:41;;;;;;;3.90;1.50;;;;;;;21.35;18.98;99742.00;105055;1271;73961;-26
2022/05/06 09:55:10;;;;;;;4.40;1.50;;;;;;;21.64;20.32;99743.64;104865;1271;74217;-27
2022/05/06 09:57:39;;;;;;;3.50;1.40;;;;;;;21.53;19.89;99747.41;105236;1271;62173;-26
2022/05/06 10:00:08;;;;;;;3.50;1.60;;;;;;;21.81;20.36;99738.33;105040;1271;61143;-27
2022/05/06 10:02:38;;;;;;;4.00;1.60;;;;;;;22.11;18.09;99731.42;105123;1271;74511;-25
2022/05/06 10:05:08;;;;;;;1.30;1.00;;;;;;;22.47;19.11;99728.86;105227;1271;75815;-27
2022/05/06 10:07:37;;;;;;;8.40;1.40;;;;;;;22.54;18.93;99723.98;104888;1271;74869;-27
2022/05/06 10:10:06;;;;;;;3.90;1.70;;;;;;;22.47;18.45;99725.81;105113;1271;61092;-27
2022/05/06 10:12:39;;;;;;;3.50;1.20;;;;;;;22.38;18.08;99714.36;105097;1271;61182;-26
2022/05/06 10:15:09;;;;;;;2.10;1.30;;;;;;;22.00;18.53;99720.88;104952;1271;75277;-27
2022/05/06 10:17:57;;;;;;;3.80;1.50;;;;;;;21.60;18.36;99716.02;105114;1271;76526;-27
2022/05/06 10:20:35;;;;;;;1.70;1.10;;;;;;;21.63;19.72;99723.61;105153;1271;73283;-26
2022/05/06 10:23:07;;;;;;;3.30;1.40;;;;;;;22.02;20.07;99720.42;105059;1271;62334;-27
2022/05/06 10:25:43;;;;;;;5.90;1.50;;;;;;;22.35;20.08;99711.37;105004;1271;61073;-26
2022/05/06 10:34:10;;;;;;;3.40;1.30;;;;;;;21.81;18.70;99710.84;105115;1271;74504;-25
2022/05/06 10:36:43;;;;;;;4.00;1.30;;;;;;;22.29;19.16;99708.80;104916;1271;61144;-25
2022/05/06 10:39:19;;;;;;;3.80;1.30;;;;;;;22.13;18.81;99705.67;104740;1271;62023;-25
2022/05/06 10:42:07;;;;;;;2.40;1.10;;;;;;;21.96;19.77;99708.60;105117;1271;75608;-25
2022/05/06 10:44:49;;;;;;;4.00;1.20;;;;;;;21.87;19.61;99701.67;105294;1271;75026;-25
2022/05/06 10:47:20;;;;;;;5.20;1.40;;;;;;;22.22;18.12;99685.20;105147;1271;74071;-25
2022/05/06 10:49:52;;;;;;;5.80;1.50;;;;;;;22.17;18.91;99689.36;105014;1271;61080;-26
2022/05/06 10:52:28;;;;;;;2.30;1.30;;;;;;;21.89;18.86;99690.23;104728;1271;62129;-25
2022/05/06 10:55:01;;;;;;;5.50;1.40;;;;;;;21.82;18.74;99687.64;104816;1272;74868;-25
2022/05/06 10:57:34;;;;;;;4.80;1.30;;;;;;;21.54;18.20;99688.19;104810;1271;74492;-25
2022/05/06 11:00:03;;;;;;;3.30;1.40;;;;;;;21.37;20.21;99681.89;104647;1272;74173;-25
2022/05/06 11:02:35;;;;;;;3.90;1.20;;;;;;;21.89;20.26;99679.53;104588;1272;61935;-25
2022/05/06 11:05:08;;;;;;;3.40;1.40;;;;;;;22.16;18.61;99673.85;104888;1271;61151;-25
2022/05/06 11:07:39;;;;;;;2.50;1.20;;;;;;;22.09;19.31;99674.86;104831;1274;284812;-26
2022/05/06 11:10:11;;;;;;;3.00;1.40;;;;;;;22.25;19.73;99675.09;104938;1271;76346;-26
2022/05/06 11:12:57;;;;;;;3.10;1.50;;;;;;;22.50;18.53;99671.92;104767;1271;74395;-26
2022/05/06 11:15:30;;;;;;;4.20;1.20;;;;;;;22.70;18.04;99655.80;104805;1271;61254;-25
2022/05/06 11:18:00;;;;;;;6.60;1.30;;;;;;;22.56;17.89;99658.73;104754;1271;61799;-25
2022/05/06 11:20:32;;;;;;;6.50;1.50;;;;;;;21.97;19.00;99660.48;104767;1271;74537;-26
2022/05/06 11:23:03;;;;;;;3.50;1.40;;;;;;;22.36;18.52;99653.46;105109;1272;75901;-26
2022/05/06 11:25:35;;;;;;;4.90;1.50;;;;;;;22.54;18.01;99655.23;105061;1271;74369;-26
2022/05/06 11:28:09;;;;;;;5.70;1.20;;;;;;;22.68;17.81;99651.61;105138;1271;62342;-25
2022/05/06 11:30:38;;;;;;;8.00;1.50;;;;;;;22.61;18.37;99648.32;105053;1272;62224;-26
2022/05/06 11:33:06;;;;;;;6.90;1.30;;;;;;;22.31;18.06;99647.48;104956;1271;75542;-25
2022/05/06 11:35:45;;;;;;;3.70;1.40;;;;;;;22.25;17.80;99646.58;104959;1271;74057;-25
2022/05/06 11:38:14;;;;;;;2.60;1.00;;;;;;;22.07;18.09;99641.84;104900;1271;73264;-26
2022/05/06 11:40:44;;;;;;;2.40;1.40;;;;;;;22.17;19.37;99641.61;104990;1271;61022;-25
2022/05/06 11:43:20;;;;;;;5.30;1.30;;;;;;;22.46;19.06;99638.64;105027;1273;61842;-25
2022/05/06 11:48:44;;;;;;;6.20;1.30;;;;;;;21.83;20.20;99633.96;105071;1271;75972;-26
2022/05/06 11:51:45;;;;;;;5.10;1.10;;;;;;;21.51;18.86;99630.63;105142;1271;73452;-25
2022/05/06 11:54:15;;;;;;;2.00;0.90;;;;;;;21.26;19.70;99632.57;105154;1271;61128;-25
2022/05/06 11:56:43;;;;;;;2.20;1.40;;;;;;;21.40;19.48;99628.59;104949;1271;61048;-25
2022/05/06 11:59:12;;;;;;;6.70;1.80;;;;;;;21.67;18.67;99624.89;104766;1271;74387;-26
2022/05/06 12:01:41;;;;;;;2.10;1.50;;;;;;;21.95;18.35;99618.40;104869;1271;76030;-25
2022/05/06 12:04:10;;;;;;;3.60;1.40;;;;;;;22.24;18.12;99617.63;104776;1271;73831;-25
2022/05/06 12:06:41;;;;;;;2.60;1.40;;;;;;;22.57;17.02;99618.23;104792;1271;61924;-27
2022/05/06 12:09:11;;;;;;;5.10;1.40;;;;;;;22.76;19.55;99615.00;104795;1271;61139;-25
2022/05/06 12:11:41;;;;;;;2.90;1.30;;;;;;;22.46;18.49;99614.56;105008;1271;75547;-25
2022/05/06 12:14:13;;;;;;;4.90;1.60;;;;;;;21.97;19.03;99604.91;105130;1271;75776;-25
2022/05/06 12:16:58;;;;;;;1.50;1.20;;;;;;;21.63;20.13;99611.05;105090;1271;74583;-25
2022/05/06 12:19:41;;;;;;;2.70;1.30;;;;;;;21.40;19.94;99608.15;104793;1274;61082;-28
2022/05/06 12:22:36;;;;;;;7.30;1.30;;;;;;;21.19;18.89;99602.15;104763;1271;62208;-25
2022/05/06 12:25:14;;;;;;;4.00;1.40;;;;;;;20.96;19.08;99599.25;104801;1271;75517;-25
2022/05/06 12:27:43;;;;;;;6.20;1.40;;;;;;;20.80;18.26;99596.14;104715;1273;75838;-26